sensor_id;sensor_type;location;lat;lon;timestamp;P1;durP1;ratioP1;P2;durP2;ratioP2
739;SDS011;354;42.694;23.336;2023-03-17T00:02:07;18.37;;;17.00;;
739;SDS011;354;42.694;23.336;2023-03-17T00:04:34;19.23;;;17.63;;
739;SDS011;354;42.694;23.336;2023-03-17T00:06:59;18.77;;;17.17;;
739;SDS011;354;42.694;23.336;2023-03-17T00:09:25;19.20;;;17.67;;
739;SDS011;354;42.694;23.336;2023-03-17T00:11:50;18.47;;;17.07;;
739;SDS011;354;42.694;23.336;2023-03-17T00:14:16;17.27;;;15.67;;
739;SDS011;354;42.694;23.336;2023-03-17T00:16:44;21.07;;;19.27;;
739;SDS011;354;42.694;23.336;2023-03-17T00:19:17;19.90;;;18.40;;
739;SDS011;354;42.694;23.336;2023-03-17T00:21:48;18.80;;;17.33;;
739;SDS011;354;42.694;23.336;2023-03-17T00:24:13;19.37;;;17.80;;
739;SDS011;354;42.694;23.336;2023-03-17T00:26:39;18.70;;;17.27;;
739;SDS011;354;42.694;23.336;2023-03-17T00:29:05;18.73;;;17.13;;
739;SDS011;354;42.694;23.336;2023-03-17T00:31:32;18.83;;;17.33;;
739;SDS011;354;42.694;23.336;2023-03-17T00:33:58;17.83;;;16.43;;
739;SDS011;354;42.694;23.336;2023-03-17T00:36:28;18.60;;;17.10;;
739;SDS011;354;42.694;23.336;2023-03-17T00:38:56;19.47;;;17.97;;
739;SDS011;354;42.694;23.336;2023-03-17T00:41:22;18.73;;;17.13;;
739;SDS011;354;42.694;23.336;2023-03-17T00:43:48;19.40;;;18.00;;
739;SDS011;354;42.694;23.336;2023-03-17T00:46:15;19.27;;;17.67;;
739;SDS011;354;42.694;23.336;2023-03-17T00:48:45;18.13;;;16.80;;
739;SDS011;354;42.694;23.336;2023-03-17T00:51:13;17.53;;;16.07;;
739;SDS011;354;42.694;23.336;2023-03-17T00:53:40;17.77;;;16.47;;
739;SDS011;354;42.694;23.336;2023-03-17T00:56:16;18.53;;;16.97;;
739;SDS011;354;42.694;23.336;2023-03-17T00:58:44;17.90;;;16.60;;
739;SDS011;354;42.694;23.336;2023-03-17T01:01:11;16.17;;;14.87;;
739;SDS011;354;42.694;23.336;2023-03-17T01:03:37;18.27;;;16.67;;
739;SDS011;354;42.694;23.336;2023-03-17T01:06:04;18.23;;;16.83;;
739;SDS011;354;42.694;23.336;2023-03-17T01:08:31;17.23;;;15.90;;
739;SDS011;354;42.694;23.336;2023-03-17T01:10:57;16.80;;;15.47;;
739;SDS011;354;42.694;23.336;2023-03-17T01:13:23;17.90;;;16.50;;
739;SDS011;354;42.694;23.336;2023-03-17T01:15:49;16.27;;;15.03;;
739;SDS011;354;42.694;23.336;2023-03-17T01:18:17;16.60;;;15.20;;
739;SDS011;354;42.694;23.336;2023-03-17T01:20:44;17.13;;;15.73;;
739;SDS011;354;42.694;23.336;2023-03-17T01:23:10;16.43;;;15.17;;
739;SDS011;354;42.694;23.336;2023-03-17T01:25:36;18.03;;;16.63;;
739;SDS011;354;42.694;23.336;2023-03-17T01:28:03;15.97;;;14.67;;
739;SDS011;354;42.694;23.336;2023-03-17T01:30:33;17.33;;;16.03;;
739;SDS011;354;42.694;23.336;2023-03-17T01:33:03;18.00;;;16.60;;
739;SDS011;354;42.694;23.336;2023-03-17T01:35:30;15.90;;;14.60;;
739;SDS011;354;42.694;23.336;2023-03-17T01:37:56;15.40;;;14.00;;
739;SDS011;354;42.694;23.336;2023-03-17T01:40:23;18.27;;;16.83;;
739;SDS011;354;42.694;23.336;2023-03-17T01:48:37;15.70;;;14.53;;
739;SDS011;354;42.694;23.336;2023-03-17T01:51:05;16.60;;;15.23;;
739;SDS011;354;42.694;23.336;2023-03-17T01:53:33;16.40;;;14.90;;
739;SDS011;354;42.694;23.336;2023-03-17T01:56:00;14.37;;;13.17;;
739;SDS011;354;42.694;23.336;2023-03-17T01:58:27;15.00;;;13.77;;
739;SDS011;354;42.694;23.336;2023-03-17T02:00:53;16.37;;;14.97;;
739;SDS011;354;42.694;23.336;2023-03-17T02:03:19;16.80;;;15.30;;
739;SDS011;354;42.694;23.336;2023-03-17T02:05:46;14.30;;;13.20;;
739;SDS011;354;42.694;23.336;2023-03-17T02:08:15;16.70;;;15.40;;
739;SDS011;354;42.694;23.336;2023-03-17T02:10:41;14.60;;;13.37;;
739;SDS011;354;42.694;23.336;2023-03-17T02:13:09;14.43;;;13.23;;
739;SDS011;354;42.694;23.336;2023-03-17T02:15:46;13.20;;;12.20;;
739;SDS011;354;42.694;23.336;2023-03-17T02:18:14;13.93;;;12.83;;
739;SDS011;354;42.694;23.336;2023-03-17T02:23:09;14.40;;;13.23;;
739;SDS011;354;42.694;23.336;2023-03-17T02:25:35;15.60;;;14.40;;
739;SDS011;354;42.694;23.336;2023-03-17T02:28:16;15.63;;;14.23;;
739;SDS011;354;42.694;23.336;2023-03-17T02:30:45;13.27;;;12.17;;
739;SDS011;354;42.694;23.336;2023-03-17T02:33:11;13.60;;;12.50;;
739;SDS011;354;42.694;23.336;2023-03-17T02:35:36;14.20;;;13.00;;
739;SDS011;354;42.694;23.336;2023-03-17T02:38:03;12.67;;;11.67;;
739;SDS011;354;42.694;23.336;2023-03-17T02:40:28;15.17;;;14.07;;
739;SDS011;354;42.694;23.336;2023-03-17T02:42:54;13.70;;;12.60;;
739;SDS011;354;42.694;23.336;2023-03-17T02:45:20;12.50;;;11.47;;
739;SDS011;354;42.694;23.336;2023-03-17T02:47:46;12.33;;;11.33;;
739;SDS011;354;42.694;23.336;2023-03-17T02:50:19;13.67;;;12.57;;
739;SDS011;354;42.694;23.336;2023-03-17T02:52:47;12.87;;;11.87;;
739;SDS011;354;42.694;23.336;2023-03-17T02:55:13;11.83;;;10.93;;
739;SDS011;354;42.694;23.336;2023-03-17T02:57:38;12.43;;;11.43;;
739;SDS011;354;42.694;23.336;2023-03-17T03:00:04;12.43;;;11.47;;
739;SDS011;354;42.694;23.336;2023-03-17T03:02:30;13.50;;;12.43;;
739;SDS011;354;42.694;23.336;2023-03-17T03:04:55;12.67;;;11.67;;
739;SDS011;354;42.694;23.336;2023-03-17T03:07:21;12.20;;;11.27;;
739;SDS011;354;42.694;23.336;2023-03-17T03:09:47;13.53;;;12.37;;
739;SDS011;354;42.694;23.336;2023-03-17T03:12:12;11.20;;;10.20;;
739;SDS011;354;42.694;23.336;2023-03-17T03:14:38;10.70;;;9.80;;
739;SDS011;354;42.694;23.336;2023-03-17T03:17:03;12.63;;;11.73;;
739;SDS011;354;42.694;23.336;2023-03-17T03:19:29;13.27;;;12.27;;
739;SDS011;354;42.694;23.336;2023-03-17T03:21:54;13.07;;;11.97;;
739;SDS011;354;42.694;23.336;2023-03-17T03:24:20;10.70;;;9.80;;
739;SDS011;354;42.694;23.336;2023-03-17T03:26:45;13.07;;;11.97;;
739;SDS011;354;42.694;23.336;2023-03-17T03:29:11;13.50;;;12.27;;
739;SDS011;354;42.694;23.336;2023-03-17T03:31:36;12.90;;;11.90;;
739;SDS011;354;42.694;23.336;2023-03-17T03:34:02;13.20;;;12.20;;
739;SDS011;354;42.694;23.336;2023-03-17T03:36:28;11.93;;;10.93;;
739;SDS011;354;42.694;23.336;2023-03-17T03:38:53;13.13;;;12.00;;
739;SDS011;354;42.694;23.336;2023-03-17T03:41:18;13.50;;;12.37;;
739;SDS011;354;42.694;23.336;2023-03-17T03:43:44;13.20;;;12.20;;
739;SDS011;354;42.694;23.336;2023-03-17T03:46:09;14.23;;;13.10;;
739;SDS011;354;42.694;23.336;2023-03-17T03:48:35;14.00;;;12.80;;
739;SDS011;354;42.694;23.336;2023-03-17T03:51:00;12.70;;;11.60;;
739;SDS011;354;42.694;23.336;2023-03-17T03:53:27;12.73;;;11.63;;
739;SDS011;354;42.694;23.336;2023-03-17T03:55:53;13.73;;;12.73;;
739;SDS011;354;42.694;23.336;2023-03-17T03:58:19;13.00;;;11.87;;
739;SDS011;354;42.694;23.336;2023-03-17T04:00:45;12.33;;;11.33;;
739;SDS011;354;42.694;23.336;2023-03-17T04:03:11;12.70;;;11.50;;
739;SDS011;354;42.694;23.336;2023-03-17T04:05:36;13.70;;;12.60;;
739;SDS011;354;42.694;23.336;2023-03-17T04:08:02;13.70;;;12.67;;
739;SDS011;354;42.694;23.336;2023-03-17T04:10:27;11.43;;;10.53;;
739;SDS011;354;42.694;23.336;2023-03-17T04:12:52;13.33;;;12.30;;
739;SDS011;354;42.694;23.336;2023-03-17T04:15:18;13.03;;;12.10;;
739;SDS011;354;42.694;23.336;2023-03-17T04:17:44;10.73;;;9.83;;
739;SDS011;354;42.694;23.336;2023-03-17T04:20:11;11.00;;;10.13;;
739;SDS011;354;42.694;23.336;2023-03-17T04:22:38;12.07;;;11.13;;
739;SDS011;354;42.694;23.336;2023-03-17T04:25:03;10.90;;;10.00;;
739;SDS011;354;42.694;23.336;2023-03-17T04:27:29;13.43;;;12.43;;
739;SDS011;354;42.694;23.336;2023-03-17T04:29:55;12.20;;;11.27;;
739;SDS011;354;42.694;23.336;2023-03-17T04:32:20;12.13;;;11.17;;
739;SDS011;354;42.694;23.336;2023-03-17T04:34:45;12.73;;;11.73;;
739;SDS011;354;42.694;23.336;2023-03-17T04:37:11;10.87;;;9.90;;
739;SDS011;354;42.694;23.336;2023-03-17T04:39:37;12.37;;;11.27;;
739;SDS011;354;42.694;23.336;2023-03-17T04:42:03;11.27;;;10.37;;
739;SDS011;354;42.694;23.336;2023-03-17T04:44:30;12.67;;;11.67;;
739;SDS011;354;42.694;23.336;2023-03-17T04:46:56;12.23;;;11.23;;
739;SDS011;354;42.694;23.336;2023-03-17T04:49:22;13.13;;;11.97;;
739;SDS011;354;42.694;23.336;2023-03-17T04:51:48;12.97;;;11.80;;
739;SDS011;354;42.694;23.336;2023-03-17T04:54:13;13.57;;;12.37;;
739;SDS011;354;42.694;23.336;2023-03-17T04:56:40;12.60;;;11.60;;
739;SDS011;354;42.694;23.336;2023-03-17T04:59:05;11.57;;;10.47;;
739;SDS011;354;42.694;23.336;2023-03-17T05:01:31;11.30;;;10.30;;
739;SDS011;354;42.694;23.336;2023-03-17T05:03:57;12.03;;;11.00;;
739;SDS011;354;42.694;23.336;2023-03-17T05:06:22;11.50;;;10.63;;
739;SDS011;354;42.694;23.336;2023-03-17T05:08:48;12.70;;;11.70;;
739;SDS011;354;42.694;23.336;2023-03-17T05:11:13;11.60;;;10.60;;
739;SDS011;354;42.694;23.336;2023-03-17T05:13:39;10.87;;;9.97;;
739;SDS011;354;42.694;23.336;2023-03-17T05:16:05;12.10;;;11.00;;
739;SDS011;354;42.694;23.336;2023-03-17T05:18:31;11.53;;;10.63;;
739;SDS011;354;42.694;23.336;2023-03-17T05:20:57;9.77;;;8.97;;
739;SDS011;354;42.694;23.336;2023-03-17T05:23:23;12.07;;;11.07;;
739;SDS011;354;42.694;23.336;2023-03-17T05:25:49;11.60;;;10.60;;
739;SDS011;354;42.694;23.336;2023-03-17T05:28:16;10.77;;;9.77;;
739;SDS011;354;42.694;23.336;2023-03-17T05:30:43;11.27;;;10.27;;
739;SDS011;354;42.694;23.336;2023-03-17T05:33:09;11.93;;;10.83;;
739;SDS011;354;42.694;23.336;2023-03-17T05:35:35;12.10;;;11.10;;
739;SDS011;354;42.694;23.336;2023-03-17T05:38:01;12.07;;;11.00;;
739;SDS011;354;42.694;23.336;2023-03-17T05:40:26;11.97;;;11.00;;
739;SDS011;354;42.694;23.336;2023-03-17T05:42:51;12.13;;;11.10;;
739;SDS011;354;42.694;23.336;2023-03-17T05:45:17;13.07;;;11.97;;
739;SDS011;354;42.694;23.336;2023-03-17T05:47:42;12.70;;;11.70;;
739;SDS011;354;42.694;23.336;2023-03-17T05:50:09;10.97;;;9.87;;
739;SDS011;354;42.694;23.336;2023-03-17T05:52:35;12.83;;;11.73;;
739;SDS011;354;42.694;23.336;2023-03-17T05:55:01;11.53;;;10.63;;
739;SDS011;354;42.694;23.336;2023-03-17T05:57:27;10.80;;;9.90;;
739;SDS011;354;42.694;23.336;2023-03-17T05:59:52;13.70;;;12.60;;
739;SDS011;354;42.694;23.336;2023-03-17T06:02:18;12.97;;;11.97;;
739;SDS011;354;42.694;23.336;2023-03-17T06:04:44;13.07;;;12.17;;
739;SDS011;354;42.694;23.336;2023-03-17T06:07:10;12.40;;;11.33;;
739;SDS011;354;42.694;23.336;2023-03-17T06:09:36;13.57;;;12.50;;
739;SDS011;354;42.694;23.336;2023-03-17T06:12:01;12.53;;;11.53;;
739;SDS011;354;42.694;23.336;2023-03-17T06:14:26;12.23;;;11.23;;
739;SDS011;354;42.694;23.336;2023-03-17T06:16:52;11.23;;;10.33;;
739;SDS011;354;42.694;23.336;2023-03-17T06:19:18;12.10;;;11.20;;
739;SDS011;354;42.694;23.336;2023-03-17T06:21:43;16.80;;;15.20;;
739;SDS011;354;42.694;23.336;2023-03-17T06:24:09;12.53;;;11.57;;
739;SDS011;354;42.694;23.336;2023-03-17T06:26:35;12.13;;;11.07;;
739;SDS011;354;42.694;23.336;2023-03-17T06:29:01;11.73;;;10.53;;
739;SDS011;354;42.694;23.336;2023-03-17T06:31:28;12.47;;;11.37;;
739;SDS011;354;42.694;23.336;2023-03-17T06:33:53;12.80;;;11.73;;
739;SDS011;354;42.694;23.336;2023-03-17T06:36:18;11.10;;;10.00;;
739;SDS011;354;42.694;23.336;2023-03-17T06:38:44;10.47;;;9.47;;
739;SDS011;354;42.694;23.336;2023-03-17T06:41:10;10.13;;;9.27;;
739;SDS011;354;42.694;23.336;2023-03-17T06:43:36;10.50;;;9.60;;
739;SDS011;354;42.694;23.336;2023-03-17T06:46:01;10.20;;;9.50;;
739;SDS011;354;42.694;23.336;2023-03-17T06:48:27;10.70;;;9.53;;
739;SDS011;354;42.694;23.336;2023-03-17T06:50:52;10.97;;;9.87;;
739;SDS011;354;42.694;23.336;2023-03-17T06:53:18;17.10;;;15.60;;
739;SDS011;354;42.694;23.336;2023-03-17T06:55:43;13.33;;;12.03;;
739;SDS011;354;42.694;23.336;2023-03-17T06:58:10;11.77;;;10.77;;
739;SDS011;354;42.694;23.336;2023-03-17T07:00:37;11.63;;;10.73;;
739;SDS011;354;42.694;23.336;2023-03-17T07:03:03;12.00;;;10.90;;
739;SDS011;354;42.694;23.336;2023-03-17T07:05:29;12.33;;;11.33;;
739;SDS011;354;42.694;23.336;2023-03-17T07:07:56;11.47;;;10.47;;
739;SDS011;354;42.694;23.336;2023-03-17T07:10:21;12.43;;;11.33;;
739;SDS011;354;42.694;23.336;2023-03-17T07:12:47;11.03;;;10.03;;
739;SDS011;354;42.694;23.336;2023-03-17T07:15:13;11.93;;;10.93;;
739;SDS011;354;42.694;23.336;2023-03-17T07:17:38;13.97;;;12.77;;
739;SDS011;354;42.694;23.336;2023-03-17T07:20:04;11.17;;;10.27;;
739;SDS011;354;42.694;23.336;2023-03-17T07:22:30;12.67;;;11.60;;
739;SDS011;354;42.694;23.336;2023-03-17T07:24:56;11.70;;;10.80;;
739;SDS011;354;42.694;23.336;2023-03-17T07:27:21;11.20;;;10.30;;
739;SDS011;354;42.694;23.336;2023-03-17T07:29:49;13.00;;;11.70;;
739;SDS011;354;42.694;23.336;2023-03-17T07:32:16;16.60;;;14.73;;
739;SDS011;354;42.694;23.336;2023-03-17T07:34:41;10.47;;;9.47;;
739;SDS011;354;42.694;23.336;2023-03-17T07:37:07;12.17;;;11.07;;
739;SDS011;354;42.694;23.336;2023-03-17T07:39:34;12.57;;;11.47;;
739;SDS011;354;42.694;23.336;2023-03-17T07:42:00;10.27;;;9.27;;
739;SDS011;354;42.694;23.336;2023-03-17T07:44:25;12.23;;;11.03;;
739;SDS011;354;42.694;23.336;2023-03-17T07:46:51;10.67;;;9.77;;
739;SDS011;354;42.694;23.336;2023-03-17T07:49:17;8.20;;;7.53;;
739;SDS011;354;42.694;23.336;2023-03-17T07:51:43;9.10;;;8.40;;
739;SDS011;354;42.694;23.336;2023-03-17T07:54:09;10.30;;;9.40;;
739;SDS011;354;42.694;23.336;2023-03-17T07:56:36;9.20;;;8.40;;
739;SDS011;354;42.694;23.336;2023-03-17T07:59:03;10.47;;;9.57;;
739;SDS011;354;42.694;23.336;2023-03-17T08:01:29;10.43;;;9.60;;
739;SDS011;354;42.694;23.336;2023-03-17T08:03:54;9.37;;;8.67;;
739;SDS011;354;42.694;23.336;2023-03-17T08:06:20;13.70;;;10.57;;
739;SDS011;354;42.694;23.336;2023-03-17T08:08:50;10.93;;;9.93;;
739;SDS011;354;42.694;23.336;2023-03-17T08:11:15;12.97;;;11.83;;
739;SDS011;354;42.694;23.336;2023-03-17T08:13:41;10.77;;;9.70;;
739;SDS011;354;42.694;23.336;2023-03-17T08:16:07;10.83;;;9.47;;
739;SDS011;354;42.694;23.336;2023-03-17T08:18:33;10.63;;;9.63;;
739;SDS011;354;42.694;23.336;2023-03-17T08:20:58;13.23;;;11.43;;
739;SDS011;354;42.694;23.336;2023-03-17T08:23:24;12.67;;;11.57;;
739;SDS011;354;42.694;23.336;2023-03-17T08:25:49;12.23;;;11.03;;
739;SDS011;354;42.694;23.336;2023-03-17T08:28:20;12.50;;;9.57;;
739;SDS011;354;42.694;23.336;2023-03-17T08:30:46;12.13;;;10.13;;
739;SDS011;354;42.694;23.336;2023-03-17T08:33:13;9.80;;;8.90;;
739;SDS011;354;42.694;23.336;2023-03-17T08:35:39;9.27;;;8.37;;
739;SDS011;354;42.694;23.336;2023-03-17T08:38:05;11.20;;;10.13;;
739;SDS011;354;42.694;23.336;2023-03-17T08:40:31;9.20;;;8.40;;
739;SDS011;354;42.694;23.336;2023-03-17T08:42:57;7.37;;;6.67;;
739;SDS011;354;42.694;23.336;2023-03-17T08:45:23;8.40;;;7.70;;
739;SDS011;354;42.694;23.336;2023-03-17T08:47:48;13.07;;;9.07;;
739;SDS011;354;42.694;23.336;2023-03-17T08:50:18;12.33;;;10.07;;
739;SDS011;354;42.694;23.336;2023-03-17T08:52:45;10.73;;;9.73;;
739;SDS011;354;42.694;23.336;2023-03-17T08:55:12;11.10;;;9.87;;
739;SDS011;354;42.694;23.336;2023-03-17T08:57:39;11.83;;;10.63;;
739;SDS011;354;42.694;23.336;2023-03-17T09:00:04;11.20;;;10.10;;
739;SDS011;354;42.694;23.336;2023-03-17T09:02:35;11.83;;;10.63;;
739;SDS011;354;42.694;23.336;2023-03-17T09:05:01;14.23;;;10.90;;
739;SDS011;354;42.694;23.336;2023-03-17T09:07:28;12.23;;;11.03;;
739;SDS011;354;42.694;23.336;2023-03-17T09:09:53;11.80;;;10.57;;
739;SDS011;354;42.694;23.336;2023-03-17T09:12:18;11.90;;;10.80;;
739;SDS011;354;42.694;23.336;2023-03-17T09:14:44;12.00;;;10.37;;
739;SDS011;354;42.694;23.336;2023-03-17T09:17:11;11.83;;;10.73;;
739;SDS011;354;42.694;23.336;2023-03-17T09:19:37;14.40;;;11.33;;
739;SDS011;354;42.694;23.336;2023-03-17T09:22:04;11.60;;;9.20;;
739;SDS011;354;42.694;23.336;2023-03-17T09:24:29;11.87;;;10.33;;
739;SDS011;354;42.694;23.336;2023-03-17T09:26:55;11.13;;;10.03;;
739;SDS011;354;42.694;23.336;2023-03-17T09:29:23;12.00;;;10.80;;
739;SDS011;354;42.694;23.336;2023-03-17T09:31:50;12.47;;;10.27;;
739;SDS011;354;42.694;23.336;2023-03-17T09:34:15;10.10;;;9.03;;
739;SDS011;354;42.694;23.336;2023-03-17T09:36:40;10.43;;;9.03;;
739;SDS011;354;42.694;23.336;2023-03-17T09:39:06;10.00;;;8.87;;
739;SDS011;354;42.694;23.336;2023-03-17T09:41:47;9.47;;;8.47;;
739;SDS011;354;42.694;23.336;2023-03-17T09:50:18;9.43;;;8.50;;
739;SDS011;354;42.694;23.336;2023-03-17T09:52:49;10.57;;;9.57;;
739;SDS011;354;42.694;23.336;2023-03-17T09:55:21;8.53;;;7.63;;
739;SDS011;354;42.694;23.336;2023-03-17T09:57:51;8.47;;;7.67;;
739;SDS011;354;42.694;23.336;2023-03-17T10:00:21;9.70;;;8.73;;
739;SDS011;354;42.694;23.336;2023-03-17T10:02:51;9.77;;;8.80;;
739;SDS011;354;42.694;23.336;2023-03-17T10:05:19;9.53;;;8.50;;
739;SDS011;354;42.694;23.336;2023-03-17T10:10:36;9.57;;;8.63;;
739;SDS011;354;42.694;23.336;2023-03-17T10:16:12;6.93;;;6.33;;
739;SDS011;354;42.694;23.336;2023-03-17T10:19:00;9.60;;;7.97;;
739;SDS011;354;42.694;23.336;2023-03-17T10:21:34;7.17;;;6.57;;
739;SDS011;354;42.694;23.336;2023-03-17T10:24:05;6.80;;;6.30;;
739;SDS011;354;42.694;23.336;2023-03-17T10:26:34;7.57;;;6.87;;
739;SDS011;354;42.694;23.336;2023-03-17T10:29:12;7.57;;;6.73;;
739;SDS011;354;42.694;23.336;2023-03-17T10:31:41;7.37;;;6.67;;
739;SDS011;354;42.694;23.336;2023-03-17T10:34:14;6.73;;;6.13;;
739;SDS011;354;42.694;23.336;2023-03-17T10:36:43;6.97;;;6.37;;
739;SDS011;354;42.694;23.336;2023-03-17T10:39:12;9.67;;;6.63;;
739;SDS011;354;42.694;23.336;2023-03-17T10:41:45;8.27;;;6.03;;
739;SDS011;354;42.694;23.336;2023-03-17T10:44:43;7.23;;;6.53;;
739;SDS011;354;42.694;23.336;2023-03-17T10:53:03;12.03;;;6.97;;
739;SDS011;354;42.694;23.336;2023-03-17T10:55:41;7.00;;;6.07;;
739;SDS011;354;42.694;23.336;2023-03-17T11:00:58;69.90;;;39.43;;
739;SDS011;354;42.694;23.336;2023-03-17T11:03:30;8.03;;;7.30;;
739;SDS011;354;42.694;23.336;2023-03-17T11:06:00;7.23;;;6.70;;
739;SDS011;354;42.694;23.336;2023-03-17T11:08:31;6.63;;;6.10;;
739;SDS011;354;42.694;23.336;2023-03-17T11:11:02;6.13;;;5.67;;
739;SDS011;354;42.694;23.336;2023-03-17T11:13:29;7.43;;;6.70;;
739;SDS011;354;42.694;23.336;2023-03-17T11:15:58;7.67;;;6.10;;
739;SDS011;354;42.694;23.336;2023-03-17T11:18:35;7.60;;;6.23;;
739;SDS011;354;42.694;23.336;2023-03-17T11:21:25;7.07;;;6.00;;
739;SDS011;354;42.694;23.336;2023-03-17T11:24:06;7.00;;;6.37;;
739;SDS011;354;42.694;23.336;2023-03-17T11:31:56;7.43;;;6.77;;
739;SDS011;354;42.694;23.336;2023-03-17T11:37:40;7.47;;;6.80;;
739;SDS011;354;42.694;23.336;2023-03-17T11:48:12;7.10;;;6.60;;
739;SDS011;354;42.694;23.336;2023-03-17T11:53:40;9.67;;;7.67;;
739;SDS011;354;42.694;23.336;2023-03-17T11:59:31;11.17;;;8.13;;
739;SDS011;354;42.694;23.336;2023-03-17T12:05:02;8.57;;;7.73;;
739;SDS011;354;42.694;23.336;2023-03-17T12:10:20;6.20;;;5.80;;
739;SDS011;354;42.694;23.336;2023-03-17T12:12:49;8.40;;;7.63;;
739;SDS011;354;42.694;23.336;2023-03-17T12:15:25;7.97;;;7.17;;
739;SDS011;354;42.694;23.336;2023-03-17T12:17:58;10.43;;;6.83;;
739;SDS011;354;42.694;23.336;2023-03-17T12:20:36;10.00;;;7.50;;
739;SDS011;354;42.694;23.336;2023-03-17T12:26:04;5.83;;;5.33;;
739;SDS011;354;42.694;23.336;2023-03-17T12:28:55;6.43;;;6.03;;
739;SDS011;354;42.694;23.336;2023-03-17T12:31:36;6.83;;;6.10;;
739;SDS011;354;42.694;23.336;2023-03-17T12:34:12;5.07;;;4.67;;
739;SDS011;354;42.694;23.336;2023-03-17T12:36:46;5.50;;;5.20;;
739;SDS011;354;42.694;23.336;2023-03-17T12:53:35;4.47;;;4.17;;
739;SDS011;354;42.694;23.336;2023-03-17T12:56:09;4.67;;;4.37;;
739;SDS011;354;42.694;23.336;2023-03-17T12:58:45;5.73;;;5.33;;
739;SDS011;354;42.694;23.336;2023-03-17T13:02:04;6.27;;;5.67;;
739;SDS011;354;42.694;23.336;2023-03-17T13:17:45;4.10;;;3.90;;
739;SDS011;354;42.694;23.336;2023-03-17T13:20:15;6.00;;;5.60;;
739;SDS011;354;42.694;23.336;2023-03-17T13:47:23;4.13;;;3.83;;
739;SDS011;354;42.694;23.336;2023-03-17T13:49:57;4.30;;;4.00;;
739;SDS011;354;42.694;23.336;2023-03-17T13:52:40;4.90;;;4.60;;
739;SDS011;354;42.694;23.336;2023-03-17T13:57:41;6.47;;;5.97;;
739;SDS011;354;42.694;23.336;2023-03-17T14:00:20;5.30;;;5.00;;
739;SDS011;354;42.694;23.336;2023-03-17T14:02:48;5.80;;;5.30;;
739;SDS011;354;42.694;23.336;2023-03-17T14:05:26;5.73;;;5.33;;
739;SDS011;354;42.694;23.336;2023-03-17T14:07:55;5.13;;;4.77;;
739;SDS011;354;42.694;23.336;2023-03-17T14:10:25;5.00;;;4.70;;
739;SDS011;354;42.694;23.336;2023-03-17T14:19:07;5.40;;;5.00;;
739;SDS011;354;42.694;23.336;2023-03-17T14:21:40;6.83;;;6.33;;
739;SDS011;354;42.694;23.336;2023-03-17T14:27:06;4.47;;;4.27;;
739;SDS011;354;42.694;23.336;2023-03-17T14:29:33;4.77;;;4.47;;
739;SDS011;354;42.694;23.336;2023-03-17T14:37:22;5.23;;;4.83;;
739;SDS011;354;42.694;23.336;2023-03-17T14:39:49;5.00;;;4.70;;
739;SDS011;354;42.694;23.336;2023-03-17T14:42:18;3.90;;;3.70;;
739;SDS011;354;42.694;23.336;2023-03-17T14:44:45;5.83;;;5.53;;
739;SDS011;354;42.694;23.336;2023-03-17T14:47:17;5.20;;;4.90;;
739;SDS011;354;42.694;23.336;2023-03-17T14:49:44;5.37;;;5.03;;
739;SDS011;354;42.694;23.336;2023-03-17T14:52:16;5.30;;;5.00;;
739;SDS011;354;42.694;23.336;2023-03-17T14:54:48;5.70;;;5.33;;
739;SDS011;354;42.694;23.336;2023-03-17T14:57:16;5.50;;;5.10;;
739;SDS011;354;42.694;23.336;2023-03-17T14:59:59;5.10;;;4.80;;
739;SDS011;354;42.694;23.336;2023-03-17T15:02:55;6.83;;;6.23;;
739;SDS011;354;42.694;23.336;2023-03-17T15:07:54;7.67;;;7.17;;
739;SDS011;354;42.694;23.336;2023-03-17T15:10:24;7.87;;;6.23;;
739;SDS011;354;42.694;23.336;2023-03-17T15:13:01;6.93;;;6.53;;
739;SDS011;354;42.694;23.336;2023-03-17T15:15:32;6.30;;;5.90;;
739;SDS011;354;42.694;23.336;2023-03-17T15:18:02;5.33;;;4.83;;
739;SDS011;354;42.694;23.336;2023-03-17T15:20:34;5.43;;;4.97;;
739;SDS011;354;42.694;23.336;2023-03-17T15:23:04;6.20;;;5.67;;
739;SDS011;354;42.694;23.336;2023-03-17T15:25:41;5.77;;;5.30;;
739;SDS011;354;42.694;23.336;2023-03-17T15:28:10;5.63;;;5.33;;
739;SDS011;354;42.694;23.336;2023-03-17T15:30:40;6.63;;;6.03;;
739;SDS011;354;42.694;23.336;2023-03-17T15:33:40;6.43;;;5.93;;
739;SDS011;354;42.694;23.336;2023-03-17T15:36:00;6.37;;;5.97;;
739;SDS011;354;42.694;23.336;2023-03-17T15:38:26;7.10;;;6.70;;
739;SDS011;354;42.694;23.336;2023-03-17T15:40:52;6.80;;;6.30;;
739;SDS011;354;42.694;23.336;2023-03-17T15:43:18;6.77;;;6.13;;
739;SDS011;354;42.694;23.336;2023-03-17T15:45:46;5.57;;;5.07;;
739;SDS011;354;42.694;23.336;2023-03-17T15:48:21;6.33;;;5.83;;
739;SDS011;354;42.694;23.336;2023-03-17T15:50:50;7.53;;;6.97;;
739;SDS011;354;42.694;23.336;2023-03-17T15:53:17;7.87;;;7.07;;
739;SDS011;354;42.694;23.336;2023-03-17T15:55:43;6.17;;;5.77;;
739;SDS011;354;42.694;23.336;2023-03-17T15:58:09;6.57;;;6.07;;
739;SDS011;354;42.694;23.336;2023-03-17T16:00:34;6.10;;;5.70;;
739;SDS011;354;42.694;23.336;2023-03-17T16:03:43;7.43;;;6.80;;
739;SDS011;354;42.694;23.336;2023-03-17T16:05:54;6.83;;;6.43;;
739;SDS011;354;42.694;23.336;2023-03-17T16:08:20;7.00;;;6.40;;
739;SDS011;354;42.694;23.336;2023-03-17T16:10:45;6.60;;;6.00;;
739;SDS011;354;42.694;23.336;2023-03-17T16:13:11;6.53;;;6.03;;
739;SDS011;354;42.694;23.336;2023-03-17T16:15:37;7.13;;;6.50;;
739;SDS011;354;42.694;23.336;2023-03-17T16:18:06;6.60;;;5.67;;
739;SDS011;354;42.694;23.336;2023-03-17T16:20:41;6.60;;;6.20;;
739;SDS011;354;42.694;23.336;2023-03-17T16:23:20;5.30;;;4.90;;
739;SDS011;354;42.694;23.336;2023-03-17T16:25:48;6.20;;;5.63;;
739;SDS011;354;42.694;23.336;2023-03-17T16:30:45;5.97;;;5.57;;
739;SDS011;354;42.694;23.336;2023-03-17T16:33:15;6.70;;;6.20;;
739;SDS011;354;42.694;23.336;2023-03-17T16:35:49;5.87;;;5.57;;
739;SDS011;354;42.694;23.336;2023-03-17T16:38:18;5.73;;;5.33;;
739;SDS011;354;42.694;23.336;2023-03-17T16:40:46;8.77;;;7.87;;
739;SDS011;354;42.694;23.336;2023-03-17T16:43:17;6.97;;;6.30;;
739;SDS011;354;42.694;23.336;2023-03-17T16:45:44;6.90;;;6.27;;
739;SDS011;354;42.694;23.336;2023-03-17T16:48:13;6.77;;;6.17;;
739;SDS011;354;42.694;23.336;2023-03-17T16:50:39;5.73;;;5.23;;
739;SDS011;354;42.694;23.336;2023-03-17T16:53:05;6.33;;;5.63;;
739;SDS011;354;42.694;23.336;2023-03-17T16:55:30;6.67;;;6.13;;
739;SDS011;354;42.694;23.336;2023-03-17T16:57:57;7.03;;;6.40;;
739;SDS011;354;42.694;23.336;2023-03-17T17:00:27;8.43;;;7.60;;
739;SDS011;354;42.694;23.336;2023-03-17T17:02:54;7.30;;;6.80;;
739;SDS011;354;42.694;23.336;2023-03-17T17:05:24;7.27;;;6.53;;
739;SDS011;354;42.694;23.336;2023-03-17T17:07:52;7.50;;;6.83;;
739;SDS011;354;42.694;23.336;2023-03-17T17:10:20;6.27;;;5.67;;
739;SDS011;354;42.694;23.336;2023-03-17T17:12:46;7.87;;;7.17;;
739;SDS011;354;42.694;23.336;2023-03-17T17:15:13;6.40;;;5.90;;
739;SDS011;354;42.694;23.336;2023-03-17T17:17:42;7.50;;;6.93;;
739;SDS011;354;42.694;23.336;2023-03-17T17:20:14;7.60;;;7.00;;
739;SDS011;354;42.694;23.336;2023-03-17T17:22:41;8.63;;;8.00;;
739;SDS011;354;42.694;23.336;2023-03-17T17:25:07;10.13;;;7.53;;
739;SDS011;354;42.694;23.336;2023-03-17T17:27:35;10.37;;;7.47;;
739;SDS011;354;42.694;23.336;2023-03-17T17:30:01;9.87;;;8.87;;
739;SDS011;354;42.694;23.336;2023-03-17T17:32:27;7.97;;;7.27;;
739;SDS011;354;42.694;23.336;2023-03-17T17:34:52;9.03;;;8.23;;